VTK601 UUDD-URMM
Flight info
| Callsign | VTK601 |
|---|---|
| Flight time | 1h 49m |
| Altitude | 39000 |
| Route | LINRU4S LINRU T614 OSPER T828 NIBIM M54 LARIN LARIN5A |
| Aircraft | A21N/M-SDE2E3FGHIRWXY/LB1 |
Departure
| Time | 2026-05-01 11:59 |
|---|---|
| Airport | Domodedovo International Airport (UUDD) |
Arrival
| Time | 2026-05-01 13:48 |
|---|---|
| Airport | Mineralnye Vody Airport (URMM) |
| Time | Latitude | Longitude | Altitude | Speed | Heading |
|---|---|---|---|---|---|
| 2026-05-01 11:45 | 55.40950 | 37.89577 | 578 ft | 0 kts | 56° |
| 2026-05-01 11:55 | 55.40953 | 37.89584 | 578 ft | 5 kts | 56° |
| 2026-05-01 11:55 | 55.40928 | 37.89645 | 576 ft | 11 kts | 192° |
| 2026-05-01 11:55 | 55.40858 | 37.89538 | 580 ft | 16 kts | 233° |
| 2026-05-01 11:56 | 55.40780 | 37.89358 | 576 ft | 21 kts | 255° |
| 2026-05-01 11:56 | 55.40837 | 37.89112 | 580 ft | 26 kts | 322° |
| 2026-05-01 11:56 | 55.40997 | 37.88916 | 582 ft | 30 kts | 325° |
| 2026-05-01 11:56 | 55.41183 | 37.88692 | 583 ft | 34 kts | 326° |
| 2026-05-01 11:57 | 55.41390 | 37.88442 | 585 ft | 38 kts | 324° |
| 2026-05-01 11:57 | 55.41612 | 37.88178 | 587 ft | 39 kts | 326° |
| 2026-05-01 11:57 | 55.41838 | 37.87901 | 592 ft | 41 kts | 326° |
| 2026-05-01 11:57 | 55.42049 | 37.87650 | 602 ft | 25 kts | 325° |
| 2026-05-01 11:58 | 55.42170 | 37.87479 | 603 ft | 21 kts | 289° |
| 2026-05-01 11:58 | 55.42105 | 37.87264 | 601 ft | 21 kts | 196° |
| 2026-05-01 11:58 | 55.41740 | 37.87656 | 595 ft | 78 kts | 146° |
| 2026-05-01 11:59 | 55.41071 | 37.88461 | 583 ft | 150 kts | 146° |
| 2026-05-01 11:59 | 55.40190 | 37.89552 | 1179 ft | 153 kts | 146° |
| 2026-05-01 11:59 | 55.39295 | 37.90615 | 1856 ft | 159 kts | 149° |
| 2026-05-01 12:00 | 55.37100 | 37.92097 | 3049 ft | 183 kts | 163° |
| 2026-05-01 12:00 | 55.35842 | 37.92851 | 3700 ft | 199 kts | 162° |
| 2026-05-01 12:00 | 55.33035 | 37.94535 | 5176 ft | 228 kts | 162° |
| 2026-05-01 12:01 | 55.31449 | 37.95297 | 5847 ft | 243 kts | 175° |
| 2026-05-01 12:01 | 55.29766 | 37.94890 | 6650 ft | 252 kts | 205° |
| 2026-05-01 12:01 | 55.28222 | 37.93284 | 7359 ft | 265 kts | 216° |
| 2026-05-01 12:01 | 55.26673 | 37.91414 | 8201 ft | 274 kts | 216° |
| 2026-05-01 12:02 | 55.25077 | 37.89512 | 9152 ft | 279 kts | 216° |
| 2026-05-01 12:02 | 55.23444 | 37.87599 | 10080 ft | 285 kts | 216° |
| 2026-05-01 12:02 | 55.21775 | 37.85667 | 10898 ft | 291 kts | 215° |
| 2026-05-01 12:02 | 55.20062 | 37.83695 | 11692 ft | 299 kts | 215° |
| 2026-05-01 12:03 | 55.18324 | 37.81707 | 12449 ft | 306 kts | 214° |
| 2026-05-01 12:03 | 55.16467 | 37.79805 | 13202 ft | 314 kts | 203° |
| 2026-05-01 12:03 | 55.14312 | 37.78669 | 13851 ft | 327 kts | 193° |
| 2026-05-01 12:03 | 55.12084 | 37.77765 | 14388 ft | 339 kts | 192° |
| 2026-05-01 12:04 | 55.09740 | 37.76822 | 14965 ft | 350 kts | 192° |
| 2026-05-01 12:04 | 55.07347 | 37.75839 | 15679 ft | 356 kts | 192° |
| 2026-05-01 12:04 | 55.04918 | 37.74827 | 16406 ft | 362 kts | 192° |
| 2026-05-01 12:04 | 55.02448 | 37.73791 | 17126 ft | 368 kts | 192° |
| 2026-05-01 12:05 | 54.99915 | 37.73019 | 17820 ft | 371 kts | 179° |
| 2026-05-01 12:05 | 54.94907 | 37.74878 | 19120 ft | 372 kts | 156° |
| 2026-05-01 12:05 | 54.92428 | 37.76319 | 19766 ft | 378 kts | 156° |
| 2026-05-01 12:06 | 54.89911 | 37.77713 | 20410 ft | 382 kts | 157° |
| 2026-05-01 12:06 | 54.87348 | 37.79064 | 21048 ft | 387 kts | 157° |
| 2026-05-01 12:06 | 54.84756 | 37.80404 | 21683 ft | 391 kts | 156° |
| 2026-05-01 12:06 | 54.82258 | 37.82182 | 22282 ft | 384 kts | 141° |
| 2026-05-01 12:07 | 54.80196 | 37.85005 | 22874 ft | 375 kts | 127° |
| 2026-05-01 12:07 | 54.78349 | 37.88215 | 23544 ft | 377 kts | 126° |
| 2026-05-01 12:07 | 54.76501 | 37.91487 | 24073 ft | 382 kts | 127° |
| 2026-05-01 12:07 | 54.74647 | 37.94726 | 24552 ft | 386 kts | 127° |
| 2026-05-01 12:08 | 54.72737 | 37.98023 | 25049 ft | 390 kts | 128° |
| 2026-05-01 12:08 | 54.70807 | 38.01329 | 25537 ft | 393 kts | 128° |
| 2026-05-01 12:08 | 54.68784 | 38.04557 | 26005 ft | 402 kts | 135° |
| 2026-05-01 12:08 | 54.66320 | 38.07040 | 26390 ft | 420 kts | 152° |
| 2026-05-01 12:09 | 54.63503 | 38.08676 | 26637 ft | 433 kts | 158° |
| 2026-05-01 12:09 | 54.60580 | 38.10157 | 26829 ft | 444 kts | 158° |
| 2026-05-01 12:09 | 54.57582 | 38.11680 | 27002 ft | 453 kts | 158° |
| 2026-05-01 12:09 | 54.54533 | 38.13264 | 27173 ft | 463 kts | 158° |
| 2026-05-01 12:10 | 54.51421 | 38.14903 | 27365 ft | 472 kts | 159° |
| 2026-05-01 12:10 | 54.45029 | 38.18293 | 27684 ft | 489 kts | 159° |
| 2026-05-01 12:10 | 54.41769 | 38.20029 | 27998 ft | 492 kts | 159° |
| 2026-05-01 12:11 | 54.35228 | 38.23534 | 28934 ft | 491 kts | 157° |
| 2026-05-01 12:11 | 54.32078 | 38.25731 | 29396 ft | 487 kts | 152° |
| 2026-05-01 12:11 | 54.28980 | 38.28101 | 29849 ft | 487 kts | 151° |
| 2026-05-01 12:12 | 54.25891 | 38.30476 | 30283 ft | 487 kts | 151° |
| 2026-05-01 12:12 | 54.22798 | 38.32850 | 30672 ft | 487 kts | 152° |
| 2026-05-01 12:12 | 54.19719 | 38.35209 | 31143 ft | 483 kts | 153° |
| 2026-05-01 12:12 | 54.16648 | 38.37543 | 31511 ft | 482 kts | 153° |
| 2026-05-01 12:13 | 54.13579 | 38.39868 | 31826 ft | 482 kts | 153° |
| 2026-05-01 12:13 | 54.10518 | 38.42188 | 32128 ft | 482 kts | 153° |
| 2026-05-01 12:13 | 54.07446 | 38.44517 | 32431 ft | 482 kts | 153° |
| 2026-05-01 12:13 | 54.04383 | 38.46835 | 32746 ft | 482 kts | 153° |
| 2026-05-01 12:14 | 54.01314 | 38.49154 | 33037 ft | 482 kts | 153° |
| 2026-05-01 12:14 | 53.98245 | 38.51467 | 33319 ft | 482 kts | 154° |
| 2026-05-01 12:14 | 53.95180 | 38.53776 | 33635 ft | 482 kts | 154° |
| 2026-05-01 12:14 | 53.92116 | 38.56079 | 33978 ft | 481 kts | 154° |
| 2026-05-01 12:15 | 53.89058 | 38.58373 | 34255 ft | 480 kts | 154° |
| 2026-05-01 12:15 | 53.86005 | 38.60658 | 34473 ft | 480 kts | 155° |
| 2026-05-01 12:15 | 53.82989 | 38.62915 | 34686 ft | 480 kts | 155° |
| 2026-05-01 12:15 | 53.79939 | 38.65195 | 34912 ft | 480 kts | 155° |
| 2026-05-01 12:16 | 53.76879 | 38.67474 | 35144 ft | 480 kts | 155° |
| 2026-05-01 12:16 | 53.73833 | 38.69740 | 35366 ft | 479 kts | 155° |
| 2026-05-01 12:16 | 53.70778 | 38.72014 | 35573 ft | 479 kts | 155° |
| 2026-05-01 12:16 | 53.67732 | 38.74274 | 35769 ft | 478 kts | 155° |
| 2026-05-01 12:17 | 53.64682 | 38.76535 | 35961 ft | 479 kts | 155° |
| 2026-05-01 12:17 | 53.61630 | 38.78790 | 36156 ft | 478 kts | 155° |
| 2026-05-01 12:17 | 53.58576 | 38.81044 | 36345 ft | 479 kts | 155° |
| 2026-05-01 12:17 | 53.55530 | 38.83290 | 36540 ft | 478 kts | 155° |
| 2026-05-01 12:18 | 53.52483 | 38.85533 | 36722 ft | 478 kts | 155° |
| 2026-05-01 12:18 | 53.49437 | 38.87774 | 36913 ft | 478 kts | 155° |
| 2026-05-01 12:18 | 53.46391 | 38.90010 | 37080 ft | 478 kts | 155° |
| 2026-05-01 12:18 | 53.43343 | 38.92242 | 37268 ft | 478 kts | 156° |
| 2026-05-01 12:19 | 53.40288 | 38.94414 | 37452 ft | 477 kts | 157° |
| 2026-05-01 12:19 | 53.37229 | 38.96539 | 37641 ft | 476 kts | 157° |
| 2026-05-01 12:19 | 53.34161 | 38.98667 | 37799 ft | 476 kts | 157° |
| 2026-05-01 12:19 | 53.31104 | 39.00792 | 37955 ft | 476 kts | 157° |
| 2026-05-01 12:20 | 53.28049 | 39.02917 | 38100 ft | 475 kts | 157° |
| 2026-05-01 12:20 | 53.25002 | 39.05037 | 38233 ft | 475 kts | 157° |
| 2026-05-01 12:20 | 53.21945 | 39.07160 | 38350 ft | 475 kts | 157° |
| 2026-05-01 12:20 | 53.18889 | 39.09279 | 38479 ft | 475 kts | 157° |
| 2026-05-01 12:21 | 53.15840 | 39.11391 | 38599 ft | 475 kts | 157° |
| 2026-05-01 12:21 | 53.12787 | 39.13501 | 38717 ft | 475 kts | 157° |
| 2026-05-01 12:21 | 53.09736 | 39.15607 | 38825 ft | 475 kts | 158° |
| 2026-05-01 12:21 | 53.06687 | 39.17711 | 38924 ft | 474 kts | 158° |
| 2026-05-01 12:22 | 53.01614 | 39.21203 | 39047 ft | 474 kts | 158° |
| 2026-05-01 12:22 | 52.97533 | 39.24005 | 39161 ft | 474 kts | 158° |
| 2026-05-01 12:22 | 52.94486 | 39.26092 | 39244 ft | 474 kts | 158° |
| 2026-05-01 12:23 | 52.88391 | 39.30256 | 39245 ft | 474 kts | 158° |
| 2026-05-01 12:23 | 52.82297 | 39.34412 | 39234 ft | 473 kts | 159° |
| 2026-05-01 12:24 | 52.76225 | 39.38537 | 39226 ft | 472 kts | 159° |
| 2026-05-01 12:24 | 52.70151 | 39.42651 | 39230 ft | 472 kts | 159° |
| 2026-05-01 12:25 | 52.61072 | 39.48779 | 39230 ft | 472 kts | 159° |
| 2026-05-01 12:26 | 52.54995 | 39.52863 | 39230 ft | 471 kts | 159° |
| 2026-05-01 12:26 | 52.46886 | 39.58296 | 39227 ft | 471 kts | 159° |
| 2026-05-01 12:27 | 52.38004 | 39.65217 | 39217 ft | 472 kts | 154° |
| 2026-05-01 12:28 | 52.29211 | 39.72457 | 39216 ft | 472 kts | 155° |
| 2026-05-01 12:29 | 52.20420 | 39.79639 | 39218 ft | 471 kts | 155° |
| 2026-05-01 12:29 | 52.11619 | 39.86802 | 39216 ft | 471 kts | 155° |
| 2026-05-01 12:30 | 52.02814 | 39.93936 | 39219 ft | 470 kts | 155° |
| 2026-05-01 12:31 | 51.96958 | 39.98675 | 39217 ft | 471 kts | 155° |
| 2026-05-01 12:31 | 51.91132 | 40.03400 | 39214 ft | 471 kts | 155° |
| 2026-05-01 12:32 | 51.85274 | 40.08134 | 39213 ft | 471 kts | 155° |
| 2026-05-01 12:32 | 51.76492 | 40.15202 | 39211 ft | 469 kts | 155° |
| 2026-05-01 12:33 | 51.70702 | 40.20095 | 39212 ft | 471 kts | 150° |
| 2026-05-01 12:33 | 51.65170 | 40.25801 | 39213 ft | 471 kts | 149° |
| 2026-05-01 12:34 | 51.59658 | 40.31500 | 39207 ft | 471 kts | 149° |
| 2026-05-01 12:34 | 51.54137 | 40.37176 | 39205 ft | 470 kts | 150° |
| 2026-05-01 12:35 | 51.48624 | 40.42828 | 39207 ft | 470 kts | 150° |
| 2026-05-01 12:35 | 51.43108 | 40.48466 | 39207 ft | 470 kts | 150° |
| 2026-05-01 12:36 | 51.37590 | 40.54084 | 39207 ft | 470 kts | 150° |
| 2026-05-01 12:36 | 51.31960 | 40.59346 | 39194 ft | 466 kts | 160° |
| 2026-05-01 12:37 | 51.28884 | 40.60841 | 39204 ft | 462 kts | 172° |
| 2026-05-01 12:37 | 51.25717 | 40.61664 | 39210 ft | 460 kts | 174° |
| 2026-05-01 12:37 | 51.19381 | 40.63083 | 39205 ft | 460 kts | 174° |
| 2026-05-01 12:38 | 51.13039 | 40.64574 | 39206 ft | 460 kts | 174° |
| 2026-05-01 12:38 | 51.06708 | 40.66094 | 39203 ft | 460 kts | 174° |
| 2026-05-01 12:39 | 51.00372 | 40.67611 | 39204 ft | 461 kts | 174° |
| 2026-05-01 12:39 | 50.94027 | 40.69122 | 39203 ft | 461 kts | 174° |
| 2026-05-01 12:40 | 50.87691 | 40.70625 | 39207 ft | 460 kts | 174° |
| 2026-05-01 12:40 | 50.81352 | 40.72130 | 39207 ft | 461 kts | 174° |
| 2026-05-01 12:41 | 50.75013 | 40.73628 | 39207 ft | 461 kts | 174° |
| 2026-05-01 12:41 | 50.68693 | 40.75115 | 39200 ft | 458 kts | 174° |
| 2026-05-01 12:42 | 50.62431 | 40.76693 | 39200 ft | 460 kts | 169° |
| 2026-05-01 12:42 | 50.59383 | 40.78296 | 39201 ft | 465 kts | 158° |
| 2026-05-01 12:42 | 50.56543 | 40.80790 | 39209 ft | 468 kts | 151° |
| 2026-05-01 12:43 | 50.51047 | 40.86306 | 39210 ft | 468 kts | 150° |
| 2026-05-01 12:43 | 50.45537 | 40.91760 | 39199 ft | 467 kts | 151° |
| 2026-05-01 12:44 | 50.40022 | 40.97145 | 39208 ft | 467 kts | 151° |
| 2026-05-01 12:45 | 50.28978 | 41.07879 | 39208 ft | 467 kts | 151° |
| 2026-05-01 12:45 | 50.23456 | 41.13227 | 39193 ft | 466 kts | 152° |
| 2026-05-01 12:46 | 50.17942 | 41.18553 | 39200 ft | 466 kts | 152° |
| 2026-05-01 12:46 | 50.12428 | 41.23862 | 39204 ft | 466 kts | 152° |
| 2026-05-01 12:47 | 50.06911 | 41.29161 | 39207 ft | 466 kts | 152° |
| 2026-05-01 12:47 | 50.01395 | 41.34445 | 39202 ft | 465 kts | 152° |
| 2026-05-01 12:48 | 49.95695 | 41.38842 | 39195 ft | 457 kts | 168° |
| 2026-05-01 12:48 | 49.89467 | 41.40557 | 39205 ft | 453 kts | 175° |
| 2026-05-01 12:49 | 49.83236 | 41.42075 | 39199 ft | 454 kts | 174° |
| 2026-05-01 12:49 | 49.77011 | 41.43695 | 39198 ft | 454 kts | 174° |
| 2026-05-01 12:50 | 49.70786 | 41.45322 | 39193 ft | 452 kts | 174° |
| 2026-05-01 12:50 | 49.64580 | 41.46943 | 39197 ft | 452 kts | 174° |
| 2026-05-01 12:51 | 49.58368 | 41.48561 | 39197 ft | 452 kts | 174° |
| 2026-05-01 12:52 | 49.49060 | 41.50976 | 39197 ft | 452 kts | 174° |
| 2026-05-01 12:52 | 49.39784 | 41.53374 | 39194 ft | 450 kts | 174° |
| 2026-05-01 12:53 | 49.30518 | 41.55758 | 39192 ft | 450 kts | 174° |
| 2026-05-01 12:54 | 49.24349 | 41.57338 | 39189 ft | 449 kts | 174° |
| 2026-05-01 12:54 | 49.15092 | 41.59708 | 39173 ft | 448 kts | 174° |
| 2026-05-01 12:55 | 49.05844 | 41.62062 | 39185 ft | 449 kts | 174° |
| 2026-05-01 12:56 | 48.99686 | 41.63627 | 39186 ft | 449 kts | 175° |
| 2026-05-01 12:56 | 48.93527 | 41.65186 | 39185 ft | 449 kts | 174° |
| 2026-05-01 12:57 | 48.87366 | 41.66741 | 39174 ft | 449 kts | 175° |
| 2026-05-01 12:57 | 48.78130 | 41.69071 | 39179 ft | 449 kts | 175° |
| 2026-05-01 12:58 | 48.71998 | 41.70611 | 39191 ft | 449 kts | 175° |
| 2026-05-01 12:59 | 48.62756 | 41.72924 | 39178 ft | 449 kts | 175° |
| 2026-05-01 12:59 | 48.53522 | 41.75227 | 39180 ft | 448 kts | 175° |
| 2026-05-01 13:00 | 48.44295 | 41.77517 | 39178 ft | 448 kts | 175° |
| 2026-05-01 13:01 | 48.35055 | 41.79810 | 39180 ft | 450 kts | 174° |
| 2026-05-01 13:02 | 48.25889 | 41.82991 | 39171 ft | 451 kts | 171° |
| 2026-05-01 13:07 | 47.59241 | 42.06608 | 39165 ft | 444 kts | 171° |
| 2026-05-01 13:08 | 47.53219 | 42.08712 | 39147 ft | 444 kts | 172° |
| 2026-05-01 13:08 | 47.47224 | 42.10807 | 39160 ft | 441 kts | 172° |
| 2026-05-01 13:09 | 47.41279 | 42.12869 | 39163 ft | 441 kts | 172° |
| 2026-05-01 13:09 | 47.35263 | 42.14952 | 39166 ft | 441 kts | 172° |
| 2026-05-01 13:10 | 47.29318 | 42.17007 | 39168 ft | 441 kts | 172° |
| 2026-05-01 13:10 | 47.23337 | 42.19071 | 39156 ft | 441 kts | 172° |
| 2026-05-01 13:11 | 47.17358 | 42.21127 | 39161 ft | 441 kts | 172° |
| 2026-05-01 13:11 | 47.11376 | 42.23182 | 39162 ft | 442 kts | 172° |
| 2026-05-01 13:12 | 47.05382 | 42.25236 | 39157 ft | 442 kts | 172° |
| 2026-05-01 13:12 | 46.99379 | 42.27098 | 39147 ft | 440 kts | 175° |
| 2026-05-01 13:13 | 46.94362 | 42.28297 | 39153 ft | 439 kts | 176° |
| 2026-05-01 13:13 | 46.88335 | 42.29735 | 39159 ft | 439 kts | 176° |
| 2026-05-01 13:14 | 46.82303 | 42.31192 | 39156 ft | 439 kts | 176° |
| 2026-05-01 13:14 | 46.76269 | 42.32650 | 39159 ft | 440 kts | 176° |
| 2026-05-01 13:15 | 46.70241 | 42.34116 | 39150 ft | 440 kts | 175° |
| 2026-05-01 13:15 | 46.64245 | 42.36005 | 39158 ft | 441 kts | 173° |
| 2026-05-01 13:16 | 46.58240 | 42.37955 | 39153 ft | 442 kts | 173° |
| 2026-05-01 13:16 | 46.52246 | 42.39892 | 39153 ft | 441 kts | 173° |
| 2026-05-01 13:17 | 46.40253 | 42.43745 | 39147 ft | 441 kts | 173° |
| 2026-05-01 13:18 | 46.31274 | 42.46619 | 39145 ft | 440 kts | 173° |
| 2026-05-01 13:18 | 46.25288 | 42.48533 | 39149 ft | 440 kts | 173° |
| 2026-05-01 13:19 | 46.19404 | 42.50405 | 39134 ft | 440 kts | 173° |
| 2026-05-01 13:25 | 46.11202 | 42.53008 | 39135 ft | 440 kts | 173° |
| 2026-05-01 13:25 | 46.05211 | 42.54858 | 39132 ft | 440 kts | 174° |
| 2026-05-01 13:26 | 45.99246 | 42.56613 | 39110 ft | 440 kts | 174° |
| 2026-05-01 13:26 | 45.93247 | 42.58388 | 39124 ft | 440 kts | 174° |
| 2026-05-01 13:27 | 45.87250 | 42.60164 | 39094 ft | 439 kts | 174° |
| 2026-05-01 13:27 | 45.84271 | 42.61047 | 38609 ft | 435 kts | 174° |
| 2026-05-01 13:27 | 45.78356 | 42.62792 | 37105 ft | 435 kts | 175° |
| 2026-05-01 13:28 | 45.72443 | 42.64533 | 35591 ft | 431 kts | 176° |
| 2026-05-01 13:28 | 45.69517 | 42.65394 | 34880 ft | 427 kts | 176° |
| 2026-05-01 13:29 | 45.63704 | 42.67100 | 33306 ft | 426 kts | 177° |
| 2026-05-01 13:29 | 45.57897 | 42.68799 | 31586 ft | 426 kts | 177° |
| 2026-05-01 13:30 | 45.46231 | 42.72208 | 27828 ft | 432 kts | 175° |
| 2026-05-01 13:31 | 45.40280 | 42.74233 | 25779 ft | 442 kts | 173° |
| 2026-05-01 13:31 | 45.31434 | 42.77327 | 23226 ft | 431 kts | 173° |
| 2026-05-01 13:32 | 45.25604 | 42.79335 | 22010 ft | 442 kts | 173° |
| 2026-05-01 13:33 | 45.16821 | 42.82379 | 20352 ft | 415 kts | 173° |
| 2026-05-01 13:33 | 45.11318 | 42.84274 | 19085 ft | 403 kts | 173° |
| 2026-05-01 13:34 | 45.05920 | 42.86127 | 17656 ft | 393 kts | 172° |
| 2026-05-01 13:34 | 45.00630 | 42.87943 | 16382 ft | 389 kts | 172° |
| 2026-05-01 13:35 | 44.95405 | 42.89738 | 15307 ft | 383 kts | 172° |
| 2026-05-01 13:35 | 44.92831 | 42.90622 | 14803 ft | 379 kts | 172° |
| 2026-05-01 13:35 | 44.87737 | 42.92367 | 13945 ft | 374 kts | 171° |
| 2026-05-01 13:36 | 44.85215 | 42.93230 | 13499 ft | 372 kts | 171° |
| 2026-05-01 13:36 | 44.82740 | 42.94078 | 12960 ft | 369 kts | 171° |
| 2026-05-01 13:36 | 44.77812 | 42.95766 | 11924 ft | 354 kts | 171° |
| 2026-05-01 13:37 | 44.75483 | 42.96563 | 11602 ft | 335 kts | 171° |
| 2026-05-01 13:37 | 44.73290 | 42.97314 | 11343 ft | 315 kts | 171° |
| 2026-05-01 13:37 | 44.71232 | 42.98020 | 11037 ft | 292 kts | 171° |
| 2026-05-01 13:37 | 44.69329 | 42.98674 | 10715 ft | 273 kts | 171° |
| 2026-05-01 13:38 | 44.65768 | 42.99890 | 10308 ft | 253 kts | 171° |
| 2026-05-01 13:38 | 44.64046 | 43.00474 | 10107 ft | 255 kts | 171° |
| 2026-05-01 13:38 | 44.62235 | 43.01084 | 10002 ft | 274 kts | 171° |
| 2026-05-01 13:39 | 44.60363 | 43.01604 | 9993 ft | 272 kts | 180° |
| 2026-05-01 13:39 | 44.58537 | 43.01241 | 9723 ft | 262 kts | 200° |
| 2026-05-01 13:39 | 44.56843 | 43.00311 | 9062 ft | 262 kts | 203° |
| 2026-05-01 13:39 | 44.55147 | 42.99326 | 8362 ft | 264 kts | 202° |
| 2026-05-01 13:40 | 44.53462 | 42.98366 | 7628 ft | 259 kts | 199° |
| 2026-05-01 13:40 | 44.51806 | 42.97438 | 6952 ft | 254 kts | 198° |
| 2026-05-01 13:40 | 44.50178 | 42.96538 | 6280 ft | 250 kts | 197° |
| 2026-05-01 13:40 | 44.48562 | 42.95651 | 5599 ft | 253 kts | 197° |
| 2026-05-01 13:41 | 44.46854 | 42.94724 | 5123 ft | 262 kts | 197° |
| 2026-05-01 13:41 | 44.45231 | 42.93835 | 4973 ft | 242 kts | 197° |
| 2026-05-01 13:41 | 44.43744 | 42.93025 | 4964 ft | 224 kts | 197° |
| 2026-05-01 13:41 | 44.42305 | 42.92208 | 4969 ft | 223 kts | 201° |
| 2026-05-01 13:42 | 44.40954 | 42.91106 | 4702 ft | 224 kts | 208° |
| 2026-05-01 13:42 | 44.39644 | 42.89929 | 4341 ft | 224 kts | 209° |
| 2026-05-01 13:42 | 44.38328 | 42.88757 | 4183 ft | 224 kts | 209° |
| 2026-05-01 13:42 | 44.37009 | 42.87593 | 4161 ft | 225 kts | 208° |
| 2026-05-01 13:43 | 44.35688 | 42.86439 | 4166 ft | 223 kts | 206° |
| 2026-05-01 13:43 | 44.34258 | 42.85687 | 4164 ft | 217 kts | 179° |
| 2026-05-01 13:43 | 44.32849 | 42.86164 | 4172 ft | 207 kts | 143° |
| 2026-05-01 13:43 | 44.31857 | 42.87576 | 4110 ft | 203 kts | 123° |
| 2026-05-01 13:44 | 44.31118 | 42.89257 | 3888 ft | 202 kts | 117° |
| 2026-05-01 13:44 | 44.30452 | 42.90921 | 3621 ft | 191 kts | 117° |
| 2026-05-01 13:44 | 44.29818 | 42.92432 | 3424 ft | 170 kts | 118° |
| 2026-05-01 13:44 | 44.29239 | 42.93794 | 3239 ft | 157 kts | 118° |
| 2026-05-01 13:45 | 44.28692 | 42.95016 | 3006 ft | 138 kts | 118° |
| 2026-05-01 13:45 | 44.28212 | 42.96082 | 2819 ft | 126 kts | 118° |
| 2026-05-01 13:45 | 44.27748 | 42.97110 | 2633 ft | 125 kts | 118° |
| 2026-05-01 13:45 | 44.27283 | 42.98139 | 2464 ft | 126 kts | 118° |
| 2026-05-01 13:46 | 44.26819 | 42.99164 | 2291 ft | 125 kts | 118° |
| 2026-05-01 13:46 | 44.26355 | 43.00189 | 2113 ft | 125 kts | 118° |
| 2026-05-01 13:46 | 44.25888 | 43.01219 | 1940 ft | 125 kts | 118° |
| 2026-05-01 13:46 | 44.25417 | 43.02260 | 1754 ft | 128 kts | 119° |
| 2026-05-01 13:47 | 44.24940 | 43.03314 | 1570 ft | 129 kts | 119° |
| 2026-05-01 13:47 | 44.24464 | 43.04372 | 1409 ft | 129 kts | 120° |
| 2026-05-01 13:47 | 44.23980 | 43.05423 | 1228 ft | 129 kts | 120° |
| 2026-05-01 13:47 | 44.23505 | 43.06479 | 1069 ft | 126 kts | 120° |
| 2026-05-01 13:48 | 44.23083 | 43.07407 | 1055 ft | 98 kts | 120° |
| 2026-05-01 13:48 | 44.22809 | 43.08021 | 1054 ft | 61 kts | 123° |
| 2026-05-01 13:48 | 44.22628 | 43.08419 | 1059 ft | 15 kts | 127° |
| 2026-05-01 13:48 | 44.22593 | 43.08483 | 1059 ft | 10 kts | 125° |